createdAt,value
2022-12-25T00:00:05.835Z,1000.18
2022-12-25T00:01:05.826Z,1000.28
2022-12-25T00:02:05.744Z,1000.21
2022-12-25T00:03:05.823Z,1000.26
2022-12-25T00:04:05.764Z,1000.25
2022-12-25T00:05:05.727Z,1000.19
2022-12-25T00:06:05.715Z,1000.23
2022-12-25T00:07:05.715Z,1000.12
2022-12-25T00:08:05.704Z,1000.21
2022-12-25T00:09:05.708Z,1000.11
2022-12-25T00:10:05.715Z,1000.10
2022-12-25T00:11:05.719Z,1000.02
2022-12-25T00:12:05.682Z,1000.05
2022-12-25T00:13:05.685Z,1000.00
2022-12-25T00:14:05.695Z,1000.01
2022-12-25T00:15:05.683Z,999.99
2022-12-25T00:16:05.676Z,999.97
2022-12-25T00:17:05.673Z,1000.01
2022-12-25T00:18:06.247Z,1000.14
2022-12-25T00:19:05.643Z,1000.10
2022-12-25T00:20:05.732Z,1000.14
2022-12-25T00:21:05.652Z,1000.15
2022-12-25T00:22:05.621Z,1000.14
2022-12-25T00:23:05.639Z,1000.11
2022-12-25T00:24:05.611Z,1000.13
2022-12-25T00:25:05.620Z,1000.17
2022-12-25T00:26:05.606Z,1000.22
2022-12-25T00:27:05.628Z,1000.26
2022-12-25T00:28:05.586Z,1000.24
2022-12-25T00:29:05.585Z,1000.27
2022-12-25T00:30:05.575Z,1000.22
2022-12-25T00:31:05.653Z,1000.30
2022-12-25T00:32:05.590Z,1000.23
2022-12-25T00:33:05.577Z,1000.25
2022-12-25T00:34:05.569Z,1000.29
2022-12-25T00:35:05.579Z,1000.34
2022-12-25T00:36:05.541Z,1000.35
2022-12-25T00:37:05.565Z,1000.38
2022-12-25T00:38:06.259Z,1000.40
2022-12-25T00:39:05.533Z,1000.46
2022-12-25T00:40:05.528Z,1000.34
2022-12-25T00:41:05.523Z,1000.30
2022-12-25T00:42:05.504Z,1000.31
2022-12-25T00:43:05.523Z,1000.32
2022-12-25T00:44:05.504Z,1000.35
2022-12-25T00:45:05.498Z,1000.39
2022-12-25T00:46:05.528Z,1000.41
2022-12-25T00:47:05.579Z,1000.43
2022-12-25T00:48:05.496Z,1000.45
2022-12-25T00:49:05.488Z,1000.47
2022-12-25T00:50:05.479Z,1000.45
2022-12-25T00:51:05.464Z,1000.40
2022-12-25T00:52:06.191Z,1000.50
2022-12-25T00:53:05.447Z,1000.45
2022-12-25T00:54:05.625Z,1000.41
2022-12-25T00:55:05.480Z,1000.43
2022-12-25T00:56:05.440Z,1000.49
2022-12-25T00:57:05.451Z,1000.49
2022-12-25T00:58:05.418Z,1000.49
2022-12-25T00:59:05.413Z,1000.49
2022-12-25T01:00:05.408Z,1000.52
2022-12-25T01:01:05.513Z,1000.53
2022-12-25T01:02:05.484Z,1000.51
2022-12-25T01:03:05.419Z,1000.51
2022-12-25T01:04:05.382Z,1000.51
2022-12-25T01:05:05.395Z,1000.47
2022-12-25T01:06:05.373Z,1000.53
2022-12-25T01:07:05.369Z,1000.56
2022-12-25T01:08:05.357Z,1000.63
2022-12-25T01:09:05.356Z,1000.58
2022-12-25T01:10:05.362Z,1000.56
2022-12-25T01:11:05.330Z,1000.63
2022-12-25T01:12:05.328Z,1000.57
2022-12-25T01:13:05.333Z,1000.58
2022-12-25T01:14:05.331Z,1000.59
2022-12-25T01:15:05.330Z,1000.62
2022-12-25T01:16:05.342Z,1000.55
2022-12-25T01:17:05.307Z,1000.58
2022-12-25T01:18:07.899Z,1000.56
2022-12-25T01:19:06.276Z,1000.55
2022-12-25T01:20:05.292Z,1000.51
2022-12-25T01:21:05.267Z,1000.56
2022-12-25T01:22:05.267Z,1000.59
2022-12-25T01:23:05.262Z,1000.59
2022-12-25T01:24:05.246Z,1000.62
2022-12-25T01:25:05.227Z,1000.64
2022-12-25T01:26:06.250Z,1000.64
2022-12-25T01:27:06.269Z,1000.67
2022-12-25T01:28:05.226Z,1000.59
2022-12-25T01:29:05.266Z,1000.61
2022-12-25T01:30:05.227Z,1000.61
2022-12-25T01:31:05.230Z,1000.64
2022-12-25T01:32:05.308Z,1000.65
2022-12-25T01:33:05.191Z,1000.69
2022-12-25T01:34:05.190Z,1000.62
2022-12-25T01:35:05.171Z,1000.75
2022-12-25T01:36:05.180Z,1000.76
2022-12-25T01:37:05.171Z,1000.75
2022-12-25T01:38:05.180Z,1000.73
2022-12-25T01:39:05.160Z,1000.71
2022-12-25T01:40:05.147Z,1000.73
2022-12-25T01:41:05.140Z,1000.67
2022-12-25T01:42:05.154Z,1000.66
2022-12-25T01:43:05.138Z,1000.71
2022-12-25T01:44:05.118Z,1000.71
2022-12-25T01:45:05.134Z,1000.70
2022-12-25T01:46:05.150Z,1000.70
2022-12-25T01:47:05.102Z,1000.66
2022-12-25T01:48:05.102Z,1000.62
2022-12-25T01:49:05.088Z,1000.75
2022-12-25T01:50:05.108Z,1000.64
2022-12-25T01:51:05.068Z,1000.66
2022-12-25T01:52:05.128Z,1000.54
2022-12-25T01:53:05.082Z,1000.67
2022-12-25T01:54:05.083Z,1000.64
2022-12-25T01:55:05.068Z,1000.63
2022-12-25T01:56:05.048Z,1000.62
2022-12-25T01:57:05.036Z,1000.62
2022-12-25T01:58:05.052Z,1000.57
2022-12-25T01:59:05.040Z,1000.56
2022-12-25T02:00:05.032Z,1000.56
2022-12-25T02:01:05.061Z,1000.59
2022-12-25T02:02:05.266Z,1000.58
2022-12-25T02:03:05.034Z,1000.54
2022-12-25T02:04:05.040Z,1000.55
2022-12-25T02:05:05.001Z,1000.61
2022-12-25T02:06:05.005Z,1000.58
2022-12-25T02:07:04.996Z,1000.60
2022-12-25T02:08:04.969Z,1000.56
2022-12-25T02:09:04.977Z,1000.60
2022-12-25T02:10:04.972Z,1000.60
2022-12-25T02:11:04.955Z,1000.66
2022-12-25T02:12:04.945Z,1000.61
2022-12-25T02:13:04.957Z,1000.65
2022-12-25T02:14:04.938Z,1000.67
2022-12-25T02:15:06.306Z,1000.67
2022-12-25T02:16:06.009Z,1000.66
2022-12-25T02:17:04.983Z,1000.71
2022-12-25T02:18:04.937Z,1000.68
2022-12-25T02:19:04.914Z,1000.64
2022-12-25T02:20:04.917Z,1000.69
2022-12-25T02:21:04.895Z,1000.68
2022-12-25T02:22:04.919Z,1000.66
2022-12-25T02:23:04.912Z,1000.60
2022-12-25T02:24:04.877Z,1000.56
2022-12-25T02:25:04.900Z,1000.58
2022-12-25T02:26:04.889Z,1000.58
2022-12-25T02:27:04.882Z,1000.58
2022-12-25T02:28:04.885Z,1000.54
2022-12-25T02:29:04.850Z,1000.62
2022-12-25T02:30:05.847Z,1000.53
2022-12-25T02:31:04.854Z,1000.51
2022-12-25T02:32:04.915Z,1000.48
2022-12-25T02:33:04.854Z,1000.47
2022-12-25T02:34:04.857Z,1000.45
2022-12-25T02:35:04.818Z,1000.45
2022-12-25T02:36:04.798Z,1000.52
2022-12-25T02:37:04.820Z,1000.46
2022-12-25T02:38:04.814Z,1000.45
2022-12-25T02:39:04.835Z,1000.50
2022-12-25T02:40:04.808Z,1000.45
2022-12-25T02:41:04.773Z,1000.37
2022-12-25T02:42:04.800Z,1000.42
2022-12-25T02:43:05.652Z,1000.38
2022-12-25T02:44:05.783Z,1000.39
2022-12-25T02:45:04.916Z,1000.36
2022-12-25T02:46:04.801Z,1000.36
2022-12-25T02:47:04.757Z,1000.38
2022-12-25T02:48:04.734Z,1000.40
2022-12-25T02:49:04.741Z,1000.36
2022-12-25T02:50:04.758Z,1000.33
2022-12-25T02:51:04.726Z,1000.33
2022-12-25T02:52:04.717Z,1000.32
2022-12-25T02:53:04.701Z,1000.37
2022-12-25T02:54:04.708Z,1000.33
2022-12-25T02:55:04.702Z,1000.41
2022-12-25T02:56:04.683Z,1000.34
2022-12-25T02:57:05.347Z,1000.38
2022-12-25T02:58:05.726Z,1000.39
2022-12-25T02:59:04.662Z,1000.38
2022-12-25T03:00:05.670Z,1000.42
2022-12-25T03:01:04.823Z,1000.44
2022-12-25T03:02:04.758Z,1000.42
2022-12-25T03:03:04.745Z,1000.42
2022-12-25T03:04:04.638Z,1000.39
2022-12-25T03:05:04.623Z,1000.38
2022-12-25T03:06:04.657Z,1000.37
2022-12-25T03:07:04.628Z,1000.39
2022-12-25T03:08:04.626Z,1000.46
2022-12-25T03:09:04.609Z,1000.49
2022-12-25T03:10:04.619Z,1000.44
2022-12-25T03:11:04.617Z,1000.51
2022-12-25T03:12:04.609Z,1000.49
2022-12-25T03:13:04.578Z,1000.51
2022-12-25T03:14:04.715Z,1000.49
2022-12-25T03:15:04.599Z,1000.51
2022-12-25T03:16:04.566Z,1000.53
2022-12-25T03:17:04.586Z,1000.52
2022-12-25T03:18:04.589Z,1000.53
2022-12-25T03:19:04.570Z,1000.54
2022-12-25T03:20:04.590Z,1000.53
2022-12-25T03:21:04.554Z,1000.55
2022-12-25T03:22:04.531Z,1000.61
2022-12-25T03:23:04.527Z,1000.56
2022-12-25T03:24:04.541Z,1000.58
2022-12-25T03:25:04.586Z,1000.55
2022-12-25T03:26:04.523Z,1000.56
2022-12-25T03:27:04.523Z,1000.63
2022-12-25T03:28:04.508Z,1000.60
2022-12-25T03:29:04.528Z,1000.59
2022-12-25T03:30:04.492Z,1000.57
2022-12-25T03:31:04.535Z,1000.59
2022-12-25T03:32:04.480Z,1000.58
2022-12-25T03:33:18.049Z,1000.49
2022-12-25T03:34:06.550Z,1000.56
2022-12-25T03:35:04.561Z,1000.55
2022-12-25T03:36:04.468Z,1000.52
2022-12-25T03:37:04.454Z,1000.51
2022-12-25T03:38:04.457Z,1000.54
2022-12-25T03:39:04.437Z,1000.55
2022-12-25T03:40:04.439Z,1000.55
2022-12-25T03:41:04.431Z,1000.59
2022-12-25T03:42:04.422Z,1000.57
2022-12-25T03:43:04.408Z,1000.52
2022-12-25T03:44:04.416Z,1000.54
2022-12-25T03:45:04.488Z,1000.59
2022-12-25T03:46:04.430Z,1000.56
2022-12-25T03:47:04.386Z,1000.59
2022-12-25T03:48:04.386Z,1000.56
2022-12-25T03:49:04.389Z,1000.53
2022-12-25T03:50:04.376Z,1000.49
2022-12-25T03:51:04.384Z,1000.44
2022-12-25T03:52:04.412Z,1000.48
2022-12-25T03:53:04.357Z,1000.47
2022-12-25T03:54:04.364Z,1000.49
2022-12-25T03:55:04.363Z,1000.46
2022-12-25T03:56:04.339Z,1000.47
2022-12-25T03:57:04.331Z,1000.50
2022-12-25T03:58:04.348Z,1000.43
2022-12-25T03:59:04.319Z,1000.43
2022-12-25T04:00:04.323Z,1000.42
2022-12-25T04:01:04.382Z,1000.42
2022-12-25T04:02:04.505Z,1000.42
2022-12-25T04:03:04.381Z,1000.32
2022-12-25T04:04:04.451Z,1000.34
2022-12-25T04:05:04.288Z,1000.33
2022-12-25T04:06:04.295Z,1000.38
2022-12-25T04:07:04.293Z,1000.42
2022-12-25T04:08:04.295Z,1000.39
2022-12-25T04:09:04.286Z,1000.37
2022-12-25T04:10:04.265Z,1000.36
2022-12-25T04:11:04.276Z,1000.34
2022-12-25T04:12:04.278Z,1000.31
2022-12-25T04:13:04.274Z,1000.34
2022-12-25T04:14:04.286Z,1000.27
2022-12-25T04:15:04.225Z,1000.28
2022-12-25T04:16:04.275Z,1000.28
2022-12-25T04:17:04.234Z,1000.23
2022-12-25T04:18:04.263Z,1000.29
2022-12-25T04:19:04.201Z,1000.33
2022-12-25T04:20:04.202Z,1000.31
2022-12-25T04:21:04.194Z,1000.27
2022-12-25T04:22:04.187Z,1000.27
2022-12-25T04:23:04.202Z,1000.25
2022-12-25T04:24:04.191Z,1000.28
2022-12-25T04:25:04.168Z,1000.30
2022-12-25T04:26:04.161Z,1000.20
2022-12-25T04:27:04.144Z,1000.18
2022-12-25T04:28:04.139Z,1000.22
2022-12-25T04:29:04.159Z,1000.22
2022-12-25T04:30:04.138Z,1000.16
2022-12-25T04:31:04.171Z,1000.15
2022-12-25T04:32:04.131Z,1000.18
2022-12-25T04:33:04.107Z,1000.13
2022-12-25T04:34:04.121Z,1000.13
2022-12-25T04:35:04.095Z,1000.09
2022-12-25T04:36:04.100Z,1000.11
2022-12-25T04:37:04.087Z,1000.06
2022-12-25T04:38:04.095Z,1000.05
2022-12-25T04:39:04.118Z,1000.07
2022-12-25T04:40:04.076Z,999.99
2022-12-25T04:41:04.065Z,1000.04
2022-12-25T04:42:04.053Z,1000.06
2022-12-25T04:43:05.049Z,1000.07
2022-12-25T04:44:04.074Z,1000.06
2022-12-25T04:45:04.064Z,1000.11
2022-12-25T04:46:04.086Z,1000.11
2022-12-25T04:47:10.751Z,1000.07
2022-12-25T04:48:06.034Z,1000.10
2022-12-25T04:49:04.011Z,1000.05
2022-12-25T04:50:04.063Z,999.96
2022-12-25T04:51:03.999Z,999.95
2022-12-25T04:52:04.007Z,999.95
2022-12-25T04:53:03.990Z,999.86
2022-12-25T04:54:03.988Z,999.89
2022-12-25T04:55:04.016Z,999.79
2022-12-25T04:56:03.966Z,999.81
2022-12-25T04:57:03.976Z,999.79
2022-12-25T04:58:03.988Z,999.75
2022-12-25T04:59:03.967Z,999.79
2022-12-25T05:00:04.038Z,999.75
2022-12-25T05:01:04.008Z,999.79
2022-12-25T05:02:04.043Z,999.76
2022-12-25T05:03:04.076Z,999.73
2022-12-25T05:04:03.936Z,999.74
2022-12-25T05:05:03.926Z,999.77
2022-12-25T05:06:03.979Z,999.76
2022-12-25T05:07:03.929Z,999.77
2022-12-25T05:08:03.916Z,999.80
2022-12-25T05:09:03.920Z,999.82
2022-12-25T05:10:03.887Z,999.89
2022-12-25T05:11:03.899Z,999.98
2022-12-25T05:12:03.934Z,999.97
2022-12-25T05:13:03.879Z,999.96
2022-12-25T05:14:03.873Z,999.96
2022-12-25T05:15:03.866Z,1000.01
2022-12-25T05:16:04.026Z,999.95
2022-12-25T05:17:03.877Z,999.99
2022-12-25T05:18:03.894Z,999.97
2022-12-25T05:19:03.870Z,1000.00
2022-12-25T05:20:03.863Z,1000.04
2022-12-25T05:21:03.826Z,1000.03
2022-12-25T05:22:03.843Z,1000.03
2022-12-25T05:23:03.845Z,1000.08
2022-12-25T05:24:03.816Z,1000.02
2022-12-25T05:25:03.798Z,1000.01
2022-12-25T05:26:03.792Z,999.97
2022-12-25T05:27:03.805Z,999.99
2022-12-25T05:28:03.785Z,1000.03
2022-12-25T05:29:03.779Z,1000.01
2022-12-25T05:30:03.776Z,1000.00
2022-12-25T05:31:03.845Z,999.97
2022-12-25T05:32:03.770Z,999.98
2022-12-25T05:33:03.766Z,999.98
2022-12-25T05:34:03.764Z,1000.01
2022-12-25T05:35:03.740Z,1000.03
2022-12-25T05:36:03.737Z,1000.11
2022-12-25T05:37:03.724Z,1000.11
2022-12-25T05:38:03.721Z,1000.12
2022-12-25T05:39:04.723Z,1000.15
2022-12-25T05:40:04.260Z,1000.19
2022-12-25T05:41:03.736Z,1000.22
2022-12-25T05:42:03.738Z,1000.20
2022-12-25T05:43:03.707Z,1000.22
2022-12-25T05:44:03.692Z,1000.25
2022-12-25T05:45:03.713Z,1000.21
2022-12-25T05:46:03.705Z,1000.20
2022-12-25T05:47:03.723Z,1000.16
2022-12-25T05:48:03.680Z,1000.14
2022-12-25T05:49:03.660Z,1000.16
2022-12-25T05:50:03.678Z,1000.13
2022-12-25T05:51:03.667Z,1000.16
2022-12-25T05:52:03.639Z,1000.13
2022-12-25T05:53:08.087Z,1000.16
2022-12-25T05:54:05.628Z,1000.13
2022-12-25T05:55:03.627Z,1000.05
2022-12-25T05:56:03.632Z,1000.00
2022-12-25T05:57:03.652Z,1000.11
2022-12-25T05:58:03.634Z,1000.01
2022-12-25T05:59:03.606Z,1000.01
2022-12-25T06:00:03.740Z,1000.06
2022-12-25T06:01:03.599Z,999.93
2022-12-25T06:02:03.692Z,1000.01
2022-12-25T06:03:03.771Z,1000.02
2022-12-25T06:04:08.435Z,999.96
2022-12-25T06:05:05.584Z,999.98
2022-12-25T06:06:03.564Z,999.97
2022-12-25T06:07:03.564Z,999.96
2022-12-25T06:08:03.564Z,999.95
2022-12-25T06:09:03.532Z,999.95
2022-12-25T06:10:04.524Z,999.91
2022-12-25T06:11:03.536Z,999.93
2022-12-25T06:12:03.532Z,999.92
2022-12-25T06:13:03.526Z,999.96
2022-12-25T06:14:03.521Z,999.94
2022-12-25T06:15:03.498Z,999.94
2022-12-25T06:16:03.509Z,999.98
2022-12-25T06:17:03.657Z,999.91
2022-12-25T06:18:03.517Z,999.92
2022-12-25T06:19:03.515Z,999.92
2022-12-25T06:20:03.520Z,999.90
2022-12-25T06:21:03.458Z,999.95
2022-12-25T06:22:03.496Z,999.85
2022-12-25T06:23:03.548Z,999.87
2022-12-25T06:24:03.544Z,999.85
2022-12-25T06:25:03.447Z,999.86
2022-12-25T06:26:03.488Z,999.92
2022-12-25T06:27:03.441Z,999.89
2022-12-25T06:28:03.440Z,999.92
2022-12-25T06:29:03.466Z,999.90
2022-12-25T06:30:03.407Z,999.99
2022-12-25T06:31:04.430Z,999.90
2022-12-25T06:32:03.417Z,999.89
2022-12-25T06:33:03.434Z,999.84
2022-12-25T06:34:03.388Z,999.75
2022-12-25T06:35:03.467Z,999.79
2022-12-25T06:36:03.384Z,999.64
2022-12-25T06:37:03.375Z,999.66
2022-12-25T06:38:03.396Z,999.70
2022-12-25T06:39:03.386Z,999.69
2022-12-25T06:40:03.357Z,999.79
2022-12-25T06:41:03.446Z,999.79
2022-12-25T06:42:03.350Z,999.73
2022-12-25T06:43:04.235Z,999.75
2022-12-25T06:44:03.375Z,999.70
2022-12-25T06:45:03.338Z,999.77
2022-12-25T06:46:03.357Z,999.65
2022-12-25T06:47:03.396Z,999.70
2022-12-25T06:48:03.331Z,999.72
2022-12-25T06:49:03.303Z,999.78
2022-12-25T06:50:03.347Z,999.68
2022-12-25T06:51:03.306Z,999.69
2022-12-25T06:52:03.296Z,999.64
2022-12-25T06:53:03.325Z,999.65
2022-12-25T06:54:03.313Z,999.55
2022-12-25T06:55:03.284Z,999.62
2022-12-25T06:56:03.300Z,999.62
2022-12-25T06:57:03.273Z,999.64
2022-12-25T06:58:03.261Z,999.62
2022-12-25T06:59:03.305Z,999.62
2022-12-25T07:00:03.298Z,999.67
2022-12-25T07:01:03.267Z,999.61
2022-12-25T07:02:03.408Z,999.68
2022-12-25T07:03:03.470Z,999.65
2022-12-25T07:04:03.235Z,999.67
2022-12-25T07:05:03.219Z,999.75
2022-12-25T07:06:03.282Z,999.65
2022-12-25T07:07:08.372Z,999.69
2022-12-25T07:08:05.208Z,999.68
2022-12-25T07:09:03.238Z,999.77
2022-12-25T07:10:03.201Z,999.69
2022-12-25T07:11:03.186Z,999.70
2022-12-25T07:12:03.247Z,999.70
2022-12-25T07:13:03.558Z,999.70
2022-12-25T07:14:03.175Z,999.64
2022-12-25T07:15:04.156Z,999.60
2022-12-25T07:16:03.234Z,999.61
2022-12-25T07:17:03.148Z,999.56
2022-12-25T07:18:03.134Z,999.55
2022-12-25T07:19:03.151Z,999.48
2022-12-25T07:20:03.150Z,999.50
2022-12-25T07:21:03.135Z,999.55
2022-12-25T07:22:03.150Z,999.53
2022-12-25T07:23:03.111Z,999.49
2022-12-25T07:24:03.101Z,999.44
2022-12-25T07:25:03.136Z,999.46
2022-12-25T07:26:03.100Z,999.39
2022-12-25T07:27:03.102Z,999.35
2022-12-25T07:28:03.107Z,999.46
2022-12-25T07:29:03.090Z,999.50
2022-12-25T07:30:03.090Z,999.43
2022-12-25T07:31:03.118Z,999.44
2022-12-25T07:32:03.112Z,999.50
2022-12-25T07:33:03.071Z,999.55
2022-12-25T07:34:03.083Z,999.56
2022-12-25T07:35:03.079Z,999.58
2022-12-25T07:36:04.047Z,999.51
2022-12-25T07:37:03.077Z,999.57
2022-12-25T07:38:03.058Z,999.56
2022-12-25T07:39:03.032Z,999.56
2022-12-25T07:40:03.105Z,999.50
2022-12-25T07:41:03.023Z,999.57
2022-12-25T07:42:03.013Z,999.53
2022-12-25T07:43:03.042Z,999.58
2022-12-25T07:44:03.010Z,999.53
2022-12-25T07:45:02.992Z,999.55
2022-12-25T07:46:03.069Z,999.45
2022-12-25T07:47:02.984Z,999.42
2022-12-25T07:48:05.890Z,999.40
2022-12-25T07:49:03.999Z,999.40
2022-12-25T07:50:02.968Z,999.37
2022-12-25T07:51:02.958Z,999.40
2022-12-25T07:52:02.977Z,999.43
2022-12-25T07:53:02.963Z,999.39
2022-12-25T07:54:02.943Z,999.43
2022-12-25T07:55:02.953Z,999.35
2022-12-25T07:56:02.947Z,999.37
2022-12-25T07:57:04.279Z,999.34
2022-12-25T07:58:02.913Z,999.25
2022-12-25T07:59:02.904Z,999.23
2022-12-25T08:00:02.945Z,999.13
2022-12-25T08:01:03.059Z,999.10
2022-12-25T08:02:03.191Z,999.07
2022-12-25T08:03:03.127Z,998.89
2022-12-25T08:04:02.995Z,998.88
2022-12-25T08:05:02.876Z,998.83
2022-12-25T08:06:02.912Z,998.84
2022-12-25T08:07:02.861Z,998.81
2022-12-25T08:08:02.866Z,998.73
2022-12-25T08:09:02.887Z,998.76
2022-12-25T08:10:02.859Z,998.83
2022-12-25T08:11:02.845Z,998.89
2022-12-25T08:12:02.878Z,998.91
2022-12-25T08:13:02.886Z,998.99
2022-12-25T08:14:02.845Z,999.03
2022-12-25T08:15:03.525Z,999.10
2022-12-25T08:16:02.853Z,999.11
2022-12-25T08:17:02.969Z,999.11
2022-12-25T08:18:02.805Z,999.10
2022-12-25T08:19:02.783Z,999.18
2022-12-25T08:20:03.792Z,999.18
2022-12-25T08:21:02.801Z,999.24
2022-12-25T08:22:02.797Z,999.27
2022-12-25T08:23:02.771Z,999.22
2022-12-25T08:24:02.796Z,999.17
2022-12-25T08:25:02.762Z,999.20
2022-12-25T08:26:05.552Z,999.19
2022-12-25T08:27:03.770Z,999.19
2022-12-25T08:28:02.754Z,999.18
2022-12-25T08:29:02.821Z,999.20
2022-12-25T08:30:02.744Z,999.08
2022-12-25T08:31:02.814Z,999.12
2022-12-25T08:32:02.715Z,999.16
2022-12-25T08:33:02.733Z,999.21
2022-12-25T08:34:02.711Z,999.22
2022-12-25T08:35:02.711Z,999.18
2022-12-25T08:36:02.697Z,999.17
2022-12-25T08:37:02.698Z,999.18
2022-12-25T08:38:02.681Z,999.17
2022-12-25T08:39:03.575Z,999.12
2022-12-25T08:40:03.690Z,999.13
2022-12-25T08:41:02.678Z,999.14
2022-12-25T08:42:02.732Z,999.08
2022-12-25T08:43:02.665Z,999.08
2022-12-25T08:44:02.690Z,999.07
2022-12-25T08:45:02.658Z,999.11
2022-12-25T08:46:02.721Z,999.11
2022-12-25T08:47:02.637Z,999.16
2022-12-25T08:48:02.701Z,999.10
2022-12-25T08:49:02.636Z,999.08
2022-12-25T08:50:02.646Z,999.05
2022-12-25T08:51:02.652Z,999.01
2022-12-25T08:52:02.605Z,998.96
2022-12-25T08:53:02.609Z,998.95
2022-12-25T08:54:02.608Z,999.00
2022-12-25T08:55:02.623Z,999.05
2022-12-25T08:56:02.586Z,999.13
2022-12-25T08:57:03.178Z,999.17
2022-12-25T08:58:03.602Z,999.19
2022-12-25T08:59:02.569Z,999.23
2022-12-25T09:00:02.571Z,999.17
2022-12-25T09:01:02.597Z,999.13
2022-12-25T09:02:02.781Z,999.08
2022-12-25T09:03:02.765Z,999.16
2022-12-25T09:04:02.560Z,999.14
2022-12-25T09:05:02.588Z,999.12
2022-12-25T09:06:02.538Z,999.03
2022-12-25T09:07:02.521Z,999.03
2022-12-25T09:08:02.776Z,998.99
2022-12-25T09:09:02.610Z,999.00
2022-12-25T09:10:02.533Z,998.97
2022-12-25T09:11:02.545Z,998.97
2022-12-25T09:12:02.519Z,998.95
2022-12-25T09:13:02.499Z,998.96
2022-12-25T09:14:02.477Z,998.92
2022-12-25T09:15:02.515Z,998.93
2022-12-25T09:16:02.537Z,998.94
2022-12-25T09:17:02.476Z,998.91
2022-12-25T09:18:02.484Z,998.89
2022-12-25T09:19:02.457Z,998.85
2022-12-25T09:20:03.397Z,998.85
2022-12-25T09:21:02.442Z,998.81
2022-12-25T09:22:02.492Z,998.86
2022-12-25T09:23:02.445Z,998.79
2022-12-25T09:24:02.431Z,998.74
2022-12-25T09:25:02.487Z,998.78
2022-12-25T09:26:02.429Z,998.72
2022-12-25T09:27:02.482Z,998.70
2022-12-25T09:28:02.417Z,998.66
2022-12-25T09:29:02.399Z,998.71
2022-12-25T09:30:02.412Z,998.62
2022-12-25T09:31:02.430Z,998.63
2022-12-25T09:32:02.440Z,998.64
2022-12-25T09:33:02.381Z,998.67
2022-12-25T09:34:02.393Z,998.76
2022-12-25T09:35:02.365Z,998.70
2022-12-25T09:36:02.360Z,998.69
2022-12-25T09:37:02.391Z,998.61
2022-12-25T09:38:02.371Z,998.62
2022-12-25T09:39:02.346Z,998.63
2022-12-25T09:40:02.357Z,998.59
2022-12-25T09:41:02.339Z,998.64
2022-12-25T09:42:02.362Z,998.72
2022-12-25T09:43:02.336Z,998.74
2022-12-25T09:44:02.453Z,998.69
2022-12-25T09:45:02.298Z,998.67
2022-12-25T09:46:02.497Z,998.60
2022-12-25T09:47:02.389Z,998.57
2022-12-25T09:48:02.299Z,998.59
2022-12-25T09:49:03.291Z,998.53
2022-12-25T09:50:02.291Z,998.58
2022-12-25T09:51:02.260Z,998.61
2022-12-25T09:52:02.289Z,998.54
2022-12-25T09:53:02.285Z,998.56
2022-12-25T09:54:02.254Z,998.50
2022-12-25T09:55:02.266Z,998.49
2022-12-25T09:56:02.231Z,998.49
2022-12-25T09:57:02.249Z,998.50
2022-12-25T09:58:02.241Z,998.47
2022-12-25T09:59:02.215Z,998.47
2022-12-25T10:00:02.203Z,998.43
2022-12-25T10:01:02.259Z,998.42
2022-12-25T10:02:02.332Z,998.46
2022-12-25T10:03:02.476Z,998.40
2022-12-25T10:04:02.192Z,998.30
2022-12-25T10:05:02.177Z,998.29
2022-12-25T10:06:02.163Z,998.25
2022-12-25T10:07:02.182Z,998.34
2022-12-25T10:08:02.182Z,998.36
2022-12-25T10:09:02.162Z,998.37
2022-12-25T10:10:02.144Z,998.30
2022-12-25T10:11:02.127Z,998.22
2022-12-25T10:12:02.168Z,998.25
2022-12-25T10:13:02.141Z,998.32
2022-12-25T10:14:02.130Z,998.29
2022-12-25T10:15:02.159Z,998.32
2022-12-25T10:16:02.120Z,998.25
2022-12-25T10:17:02.161Z,998.24
2022-12-25T10:18:02.119Z,998.18
2022-12-25T10:19:02.100Z,998.08
2022-12-25T10:20:02.118Z,998.12
2022-12-25T10:21:02.067Z,998.08
2022-12-25T10:22:02.075Z,998.07
2022-12-25T10:23:02.121Z,998.16
2022-12-25T10:24:02.072Z,998.19
2022-12-25T10:25:02.075Z,998.20
2022-12-25T10:26:02.041Z,998.23
2022-12-25T10:27:02.051Z,998.26
2022-12-25T10:28:02.027Z,998.17
2022-12-25T10:29:02.080Z,998.15
2022-12-25T10:30:02.039Z,998.23
2022-12-25T10:31:02.066Z,998.28
2022-12-25T10:32:01.998Z,998.33
2022-12-25T10:33:02.023Z,998.23
2022-12-25T10:34:02.009Z,998.16
2022-12-25T10:35:01.998Z,998.13
2022-12-25T10:36:02.985Z,998.15
2022-12-25T10:37:02.009Z,998.16
2022-12-25T10:38:01.959Z,998.16
2022-12-25T10:39:01.991Z,998.26
2022-12-25T10:40:01.994Z,998.24
2022-12-25T10:41:01.982Z,998.27
2022-12-25T10:42:01.931Z,998.14
2022-12-25T10:43:01.976Z,998.20
2022-12-25T10:44:01.933Z,998.22
2022-12-25T10:45:01.963Z,998.34
2022-12-25T10:46:01.966Z,998.34
2022-12-25T10:47:01.952Z,998.28
2022-12-25T10:48:06.879Z,998.20
2022-12-25T10:49:03.918Z,998.15
2022-12-25T10:50:01.922Z,998.07
2022-12-25T10:51:01.895Z,998.05
2022-12-25T10:52:01.873Z,998.07
2022-12-25T10:53:01.854Z,998.07
2022-12-25T10:54:01.883Z,998.05
2022-12-25T10:55:01.851Z,998.00
2022-12-25T10:56:01.865Z,997.89
2022-12-25T10:57:01.849Z,997.79
2022-12-25T10:58:02.060Z,997.81
2022-12-25T10:59:01.848Z,997.78
2022-12-25T11:00:01.844Z,997.78
2022-12-25T11:01:01.840Z,997.74
2022-12-25T11:02:01.926Z,997.75
2022-12-25T11:03:02.156Z,997.76
2022-12-25T11:04:01.836Z,997.76
2022-12-25T11:05:01.783Z,997.71
2022-12-25T11:06:01.798Z,997.73
2022-12-25T11:07:01.786Z,997.74
2022-12-25T11:08:02.980Z,997.73
2022-12-25T11:09:01.791Z,997.77
2022-12-25T11:10:05.089Z,997.76
2022-12-25T11:11:02.829Z,997.78
2022-12-25T11:12:01.745Z,997.77
2022-12-25T11:13:01.728Z,997.69
2022-12-25T11:14:01.735Z,997.59
2022-12-25T11:15:01.720Z,997.51
2022-12-25T11:16:01.779Z,997.43
2022-12-25T11:17:01.690Z,997.46
2022-12-25T11:18:01.681Z,997.50
2022-12-25T11:19:02.745Z,997.39
2022-12-25T11:20:01.741Z,997.30
2022-12-25T11:21:01.679Z,997.33
2022-12-25T11:22:01.701Z,997.34
2022-12-25T11:23:01.681Z,997.39
2022-12-25T11:24:01.739Z,997.47
2022-12-25T11:25:01.672Z,997.45
2022-12-25T11:26:01.634Z,997.52
2022-12-25T11:27:01.689Z,997.50
2022-12-25T11:28:01.644Z,997.48
2022-12-25T11:29:01.639Z,997.40
2022-12-25T11:30:01.638Z,997.43
2022-12-25T11:31:01.766Z,997.45
2022-12-25T11:32:01.603Z,997.48
2022-12-25T11:33:01.595Z,997.51
2022-12-25T11:34:01.584Z,997.51
2022-12-25T11:35:01.575Z,997.49
2022-12-25T11:36:01.620Z,997.41
2022-12-25T11:37:01.688Z,997.46
2022-12-25T11:38:01.598Z,997.43
2022-12-25T11:39:01.721Z,997.43
2022-12-25T11:40:01.586Z,997.40
2022-12-25T11:41:01.552Z,997.44
2022-12-25T11:42:01.548Z,997.46
2022-12-25T11:43:07.547Z,997.38
2022-12-25T11:44:03.515Z,997.41
2022-12-25T11:45:01.536Z,997.41
2022-12-25T11:46:01.537Z,997.39
2022-12-25T11:47:01.623Z,997.38
2022-12-25T11:48:01.513Z,997.45
2022-12-25T11:49:02.497Z,997.46
2022-12-25T11:50:01.513Z,997.41
2022-12-25T11:51:01.489Z,997.44
2022-12-25T11:52:01.478Z,997.36
2022-12-25T11:53:01.462Z,997.39
2022-12-25T11:54:01.461Z,997.46
2022-12-25T11:55:01.452Z,997.44
2022-12-25T11:56:01.459Z,997.48
2022-12-25T11:57:01.438Z,997.53
2022-12-25T11:58:01.452Z,997.55
2022-12-25T11:59:01.415Z,997.55
2022-12-25T12:00:01.420Z,997.52
2022-12-25T12:01:01.411Z,997.50
2022-12-25T12:02:01.516Z,997.56
2022-12-25T12:03:10.231Z,997.56
2022-12-25T12:04:02.436Z,997.56
2022-12-25T12:05:01.948Z,997.53
2022-12-25T12:06:01.392Z,997.53
2022-12-25T12:07:01.361Z,997.45
2022-12-25T12:08:01.384Z,997.44
2022-12-25T12:09:01.348Z,997.42
2022-12-25T12:10:01.403Z,997.42
2022-12-25T12:11:01.386Z,997.40
2022-12-25T12:12:01.340Z,997.31
2022-12-25T12:13:01.336Z,997.34
2022-12-25T12:14:01.358Z,997.33
2022-12-25T12:15:01.329Z,997.38
2022-12-25T12:16:01.331Z,997.35
2022-12-25T12:17:01.293Z,997.32
2022-12-25T12:18:01.315Z,997.26